sensor_id;sensor_type;location;lat;lon;timestamp;pressure;altitude;pressure_sealevel;temperature;humidity
57086;BME280;42964;42.910;23.792;2023-03-26T00:02:24;97137.97;;;11.21;77.96
57086;BME280;42964;42.910;23.792;2023-03-26T00:07:23;97135.97;;;11.43;77.02
57086;BME280;42964;42.910;23.792;2023-03-26T00:12:21;97136.50;;;11.64;76.39
57086;BME280;42964;42.910;23.792;2023-03-26T00:17:20;97155.31;;;11.80;75.53
57086;BME280;42964;42.910;23.792;2023-03-26T00:22:20;97160.50;;;11.81;75.38
57086;BME280;42964;42.910;23.792;2023-03-26T00:27:21;97159.47;;;11.92;75.02
57086;BME280;42964;42.910;23.792;2023-03-26T00:32:21;97162.81;;;12.00;74.68
57086;BME280;42964;42.910;23.792;2023-03-26T00:37:22;97143.72;;;12.01;73.90
57086;BME280;42964;42.910;23.792;2023-03-26T00:42:24;97131.38;;;12.14;73.58
57086;BME280;42964;42.910;23.792;2023-03-26T00:47:24;97128.06;;;12.04;74.15
57086;BME280;42964;42.910;23.792;2023-03-26T00:52:24;97141.13;;;12.02;74.04
57086;BME280;42964;42.910;23.792;2023-03-26T00:57:26;97125.72;;;11.88;74.28
57086;BME280;42964;42.910;23.792;2023-03-26T01:02:27;97132.00;;;11.77;74.29
57086;BME280;42964;42.910;23.792;2023-03-26T01:07:27;97072.88;;;11.34;73.90
57086;BME280;42964;42.910;23.792;2023-03-26T01:12:29;97125.13;;;11.71;73.97
57086;BME280;42964;42.910;23.792;2023-03-26T01:17:32;97122.66;;;11.63;73.49
57086;BME280;42964;42.910;23.792;2023-03-26T01:22:35;97128.81;;;11.58;73.80
57086;BME280;42964;42.910;23.792;2023-03-26T01:33:18;97132.38;;;11.51;74.64
57086;BME280;42964;42.910;23.792;2023-03-26T01:43:38;97146.09;;;11.62;74.17
57086;BME280;42964;42.910;23.792;2023-03-26T01:48:42;97148.97;;;11.42;75.55
57086;BME280;42964;42.910;23.792;2023-03-26T01:53:45;97127.41;;;11.35;75.56
57086;BME280;42964;42.910;23.792;2023-03-26T01:58:54;97137.66;;;11.44;75.16
57086;BME280;42964;42.910;23.792;2023-03-26T02:04:17;97095.53;;;11.24;75.06
57086;BME280;42964;42.910;23.792;2023-03-26T02:09:24;97141.22;;;11.37;75.71
57086;BME280;42964;42.910;23.792;2023-03-26T02:14:28;97112.13;;;11.14;75.82
57086;BME280;42964;42.910;23.792;2023-03-26T02:19:28;97146.50;;;11.31;75.65
57086;BME280;42964;42.910;23.792;2023-03-26T02:24:27;97143.91;;;11.33;75.24
57086;BME280;42964;42.910;23.792;2023-03-26T02:29:26;97151.69;;;11.34;75.48
57086;BME280;42964;42.910;23.792;2023-03-26T02:34:25;97146.50;;;11.31;75.71
57086;BME280;42964;42.910;23.792;2023-03-26T02:39:24;97147.41;;;11.30;76.07
57086;BME280;42964;42.910;23.792;2023-03-26T02:44:23;97116.75;;;10.90;77.06
57086;BME280;42964;42.910;23.792;2023-03-26T02:49:23;97154.56;;;11.11;77.29
57086;BME280;42964;42.910;23.792;2023-03-26T02:54:22;97154.72;;;10.99;77.31
57086;BME280;42964;42.910;23.792;2023-03-26T02:59:21;97166.78;;;11.03;77.65
57086;BME280;42964;42.910;23.792;2023-03-26T03:04:20;97190.97;;;11.07;76.33
57086;BME280;42964;42.910;23.792;2023-03-26T03:09:19;97184.09;;;11.01;74.88
57086;BME280;42964;42.910;23.792;2023-03-26T03:14:18;97198.09;;;10.89;74.51
57086;BME280;42964;42.910;23.792;2023-03-26T03:19:18;97213.72;;;10.81;73.96
57086;BME280;42964;42.910;23.792;2023-03-26T03:24:17;97215.91;;;10.35;75.44
57086;BME280;42964;42.910;23.792;2023-03-26T03:29:16;97223.88;;;10.13;77.65
57086;BME280;42964;42.910;23.792;2023-03-26T03:34:14;97222.91;;;10.24;78.21
57086;BME280;42964;42.910;23.792;2023-03-26T03:39:14;97234.88;;;10.43;76.58
57086;BME280;42964;42.910;23.792;2023-03-26T03:44:13;97233.91;;;10.53;75.28
57086;BME280;42964;42.910;23.792;2023-03-26T03:49:12;97232.06;;;10.63;74.42
57086;BME280;42964;42.910;23.792;2023-03-26T03:54:11;97231.09;;;10.76;74.24
57086;BME280;42964;42.910;23.792;2023-03-26T03:59:10;97196.63;;;10.60;73.95
57086;BME280;42964;42.910;23.792;2023-03-26T04:04:09;97238.00;;;10.76;74.68
57086;BME280;42964;42.910;23.792;2023-03-26T04:09:08;97236.22;;;10.79;74.85
57086;BME280;42964;42.910;23.792;2023-03-26T04:14:10;97255.50;;;10.57;75.18
57086;BME280;42964;42.910;23.792;2023-03-26T04:19:09;97263.31;;;10.49;75.50
57086;BME280;42964;42.910;23.792;2023-03-26T04:24:08;97256.53;;;10.33;74.78
57086;BME280;42964;42.910;23.792;2023-03-26T04:29:10;97222.22;;;10.00;73.29
57086;BME280;42964;42.910;23.792;2023-03-26T04:34:20;97293.72;;;10.35;68.45
57086;BME280;42964;42.910;23.792;2023-03-26T04:39:21;97301.63;;;10.19;62.71
57086;BME280;42964;42.910;23.792;2023-03-26T04:44:20;97310.22;;;10.26;62.30
57086;BME280;42964;42.910;23.792;2023-03-26T04:49:22;97293.88;;;10.13;60.96
57086;BME280;42964;42.910;23.792;2023-03-26T04:54:21;97317.13;;;10.27;59.97
57086;BME280;42964;42.910;23.792;2023-03-26T04:59:24;97305.06;;;10.22;58.92
57086;BME280;42964;42.910;23.792;2023-03-26T05:04:27;97315.44;;;10.18;59.12
57086;BME280;42964;42.910;23.792;2023-03-26T05:09:31;97340.34;;;10.39;59.82
57086;BME280;42964;42.910;23.792;2023-03-26T05:14:30;97254.31;;;9.87;59.89
57086;BME280;42964;42.910;23.792;2023-03-26T05:19:29;97355.78;;;10.59;59.51
57086;BME280;42964;42.910;23.792;2023-03-26T05:24:28;97362.69;;;10.60;60.35
57086;BME280;42964;42.910;23.792;2023-03-26T05:29:27;97364.38;;;10.71;60.62
57086;BME280;42964;42.910;23.792;2023-03-26T05:34:26;97353.03;;;10.81;60.01
57086;BME280;42964;42.910;23.792;2023-03-26T05:39:25;97332.25;;;10.87;60.16
57086;BME280;42964;42.910;23.792;2023-03-26T05:44:24;97343.53;;;10.78;54.38
57086;BME280;42964;42.910;23.792;2023-03-26T05:49:23;97354.59;;;11.03;54.64
57086;BME280;42964;42.910;23.792;2023-03-26T05:54:22;97349.16;;;11.28;54.93
57086;BME280;42964;42.910;23.792;2023-03-26T05:59:22;97345.47;;;11.48;54.84
57086;BME280;42964;42.910;23.792;2023-03-26T06:04:21;97351.34;;;11.65;53.32
57086;BME280;42964;42.910;23.792;2023-03-26T06:09:20;97348.66;;;11.71;52.70
57086;BME280;42964;42.910;23.792;2023-03-26T06:14:19;97355.84;;;11.51;50.17
57086;BME280;42964;42.910;23.792;2023-03-26T06:19:18;97353.06;;;11.67;48.10
57086;BME280;42964;42.910;23.792;2023-03-26T06:24:17;97358.88;;;11.86;48.03
57086;BME280;42964;42.910;23.792;2023-03-26T06:29:17;97366.00;;;11.74;47.49
57086;BME280;42964;42.910;23.792;2023-03-26T06:34:16;97363.19;;;11.89;46.38
57086;BME280;42964;42.910;23.792;2023-03-26T06:39:15;97320.00;;;11.76;46.07
57086;BME280;42964;42.910;23.792;2023-03-26T06:44:14;97363.06;;;11.98;46.32
57086;BME280;42964;42.910;23.792;2023-03-26T06:49:13;97358.47;;;12.19;44.37
57086;BME280;42964;42.910;23.792;2023-03-26T06:54:12;97361.47;;;11.88;44.62
57086;BME280;42964;42.910;23.792;2023-03-26T06:59:11;97355.22;;;12.03;45.19
57086;BME280;42964;42.910;23.792;2023-03-26T07:04:10;97360.09;;;12.24;45.08
57086;BME280;42964;42.910;23.792;2023-03-26T07:09:09;97349.63;;;12.32;43.34
57086;BME280;42964;42.910;23.792;2023-03-26T07:14:08;97342.38;;;12.52;43.92
57086;BME280;42964;42.910;23.792;2023-03-26T07:19:07;97338.72;;;12.64;42.48
57086;BME280;42964;42.910;23.792;2023-03-26T07:24:09;97333.00;;;12.97;42.55
57086;BME280;42964;42.910;23.792;2023-03-26T07:34:34;97337.16;;;13.07;42.27
57086;BME280;42964;42.910;23.792;2023-03-26T07:45:16;97337.91;;;13.13;41.63
57086;BME280;42964;42.910;23.792;2023-03-26T07:50:19;97326.72;;;13.08;41.08
57086;BME280;42964;42.910;23.792;2023-03-26T07:55:19;97323.50;;;13.42;41.35
57086;BME280;42964;42.910;23.792;2023-03-26T08:05:32;97305.78;;;13.60;39.86
57086;BME280;42964;42.910;23.792;2023-03-26T08:16:23;97321.13;;;14.15;38.49
57086;BME280;42964;42.910;23.792;2023-03-26T08:21:29;97313.50;;;14.06;37.79
57086;BME280;42964;42.910;23.792;2023-03-26T08:26:35;97311.88;;;14.01;36.70
57086;BME280;42964;42.910;23.792;2023-03-26T08:31:40;97302.69;;;14.23;35.06
57086;BME280;42964;42.910;23.792;2023-03-26T08:36:41;97289.94;;;14.47;36.01
57086;BME280;42964;42.910;23.792;2023-03-26T08:52:54;97297.66;;;14.89;34.37
57086;BME280;42964;42.910;23.792;2023-03-26T09:03:38;97287.09;;;14.93;33.99
57086;BME280;42964;42.910;23.792;2023-03-26T09:24:42;97261.56;;;15.65;34.70
57086;BME280;42964;42.910;23.792;2023-03-26T09:40:42;97245.22;;;15.57;32.93
57086;BME280;42964;42.910;23.792;2023-03-26T09:45:54;97259.94;;;15.61;32.67
57086;BME280;42964;42.910;23.792;2023-03-26T09:51:34;97244.44;;;15.55;31.75
57086;BME280;42964;42.910;23.792;2023-03-26T10:12:41;97218.72;;;15.99;29.95
57086;BME280;42964;42.910;23.792;2023-03-26T10:33:12;97187.53;;;16.20;27.68
57086;BME280;42964;42.910;23.792;2023-03-26T10:58:55;97134.81;;;16.82;27.04
57086;BME280;42964;42.910;23.792;2023-03-26T11:04:51;97130.31;;;16.61;26.47
57086;BME280;42964;42.910;23.792;2023-03-26T11:09:52;97130.38;;;16.84;28.08
57086;BME280;42964;42.910;23.792;2023-03-26T11:20:47;97117.16;;;16.87;26.22
57086;BME280;42964;42.910;23.792;2023-03-26T11:26:15;97097.19;;;17.07;26.57
57086;BME280;42964;42.910;23.792;2023-03-26T11:36:36;97094.22;;;16.92;25.89
57086;BME280;42964;42.910;23.792;2023-03-26T11:41:37;97086.00;;;17.03;26.63
57086;BME280;42964;42.910;23.792;2023-03-26T11:46:39;97079.81;;;17.04;25.98
57086;BME280;42964;42.910;23.792;2023-03-26T11:51:43;97078.16;;;17.02;26.61
57086;BME280;42964;42.910;23.792;2023-03-26T11:57:03;97064.16;;;17.03;26.31
57086;BME280;42964;42.910;23.792;2023-03-26T12:07:17;97035.53;;;17.20;26.02
57086;BME280;42964;42.910;23.792;2023-03-26T12:12:16;97023.16;;;17.46;25.57
57086;BME280;42964;42.910;23.792;2023-03-26T12:17:33;97035.03;;;17.54;24.98
57086;BME280;42964;42.910;23.792;2023-03-26T12:27:33;97024.75;;;17.70;26.54
57086;BME280;42964;42.910;23.792;2023-03-26T12:32:40;97025.81;;;17.66;26.02
57086;BME280;42964;42.910;23.792;2023-03-26T12:37:39;97011.38;;;17.78;25.39
57086;BME280;42964;42.910;23.792;2023-03-26T12:42:57;97001.13;;;17.70;26.07
57086;BME280;42964;42.910;23.792;2023-03-26T12:47:57;96990.00;;;17.65;26.02
57086;BME280;42964;42.910;23.792;2023-03-26T12:58:26;96981.00;;;17.93;26.38
57086;BME280;42964;42.910;23.792;2023-03-26T13:14:41;96979.97;;;17.75;25.54
57086;BME280;42964;42.910;23.792;2023-03-26T13:25:27;96962.78;;;18.29;26.84
57086;BME280;42964;42.910;23.792;2023-03-26T13:30:40;96956.25;;;18.38;24.59
57086;BME280;42964;42.910;23.792;2023-03-26T13:35:47;96953.13;;;18.30;25.74
57086;BME280;42964;42.910;23.792;2023-03-26T13:40:59;96954.63;;;18.35;25.36
57086;BME280;42964;42.910;23.792;2023-03-26T13:46:19;96951.50;;;18.46;25.07
57086;BME280;42964;42.910;23.792;2023-03-26T13:51:26;96930.88;;;18.57;25.33
57086;BME280;42964;42.910;23.792;2023-03-26T13:56:49;96947.00;;;18.69;25.30
57086;BME280;42964;42.910;23.792;2023-03-26T14:01:54;96943.03;;;18.79;25.64
57086;BME280;42964;42.910;23.792;2023-03-26T14:07:00;96948.75;;;18.49;25.63
57086;BME280;42964;42.910;23.792;2023-03-26T14:17:29;96934.63;;;18.71;25.83
57086;BME280;42964;42.910;23.792;2023-03-26T14:27:49;96929.91;;;18.21;25.88
57086;BME280;42964;42.910;23.792;2023-03-26T14:33:04;96934.22;;;18.22;25.90
57086;BME280;42964;42.910;23.792;2023-03-26T14:54:26;96922.44;;;17.91;26.60
57086;BME280;42964;42.910;23.792;2023-03-26T15:22:07;96937.28;;;17.29;28.67
57086;BME280;42964;42.910;23.792;2023-03-26T15:54:25;96953.72;;;16.43;31.30
57086;BME280;42964;42.910;23.792;2023-03-26T16:04:59;96960.81;;;16.16;31.81
57086;BME280;42964;42.910;23.792;2023-03-26T16:10:17;96965.50;;;16.06;32.32
57086;BME280;42964;42.910;23.792;2023-03-26T16:15:31;96974.34;;;16.03;32.74
57086;BME280;42964;42.910;23.792;2023-03-26T16:20:51;96942.97;;;15.77;33.21
57086;BME280;42964;42.910;23.792;2023-03-26T16:36:24;96986.69;;;15.73;33.73
57086;BME280;42964;42.910;23.792;2023-03-26T16:41:26;96987.44;;;15.50;33.92
57086;BME280;42964;42.910;23.792;2023-03-26T16:57:27;96998.03;;;14.91;36.38
57086;BME280;42964;42.910;23.792;2023-03-26T17:07:46;97003.97;;;14.36;37.59
57086;BME280;42964;42.910;23.792;2023-03-26T17:12:56;96998.53;;;14.13;38.19
57086;BME280;42964;42.910;23.792;2023-03-26T17:18:06;97016.56;;;13.88;38.67
57086;BME280;42964;42.910;23.792;2023-03-26T17:33:28;97025.72;;;13.32;39.83
57086;BME280;42964;42.910;23.792;2023-03-26T17:43:47;96933.22;;;12.40;40.64
57086;BME280;42964;42.910;23.792;2023-03-26T17:48:55;97026.59;;;12.96;40.46
57086;BME280;42964;42.910;23.792;2023-03-26T17:53:56;97015.47;;;12.87;40.39
57086;BME280;42964;42.910;23.792;2023-03-26T17:58:58;97022.63;;;12.78;40.88
57086;BME280;42964;42.910;23.792;2023-03-26T18:04:07;97014.44;;;12.54;41.23
57086;BME280;42964;42.910;23.792;2023-03-26T18:20:17;97009.00;;;12.20;41.78
57086;BME280;42964;42.910;23.792;2023-03-26T18:25:29;97003.88;;;12.17;41.61
57086;BME280;42964;42.910;23.792;2023-03-26T18:30:31;96989.03;;;11.75;44.29
57086;BME280;42964;42.910;23.792;2023-03-26T18:35:44;96970.63;;;11.87;43.64
57086;BME280;42964;42.910;23.792;2023-03-26T18:40:49;96986.00;;;12.00;44.75
57086;BME280;42964;42.910;23.792;2023-03-26T18:45:50;96965.56;;;11.81;44.79
57086;BME280;42964;42.910;23.792;2023-03-26T18:51:05;96960.59;;;11.69;45.09
57086;BME280;42964;42.910;23.792;2023-03-26T18:56:34;96970.16;;;11.65;45.72
57086;BME280;42964;42.910;23.792;2023-03-26T19:01:36;96964.94;;;11.67;45.87
57086;BME280;42964;42.910;23.792;2023-03-26T19:06:39;96933.31;;;11.43;45.76
57086;BME280;42964;42.910;23.792;2023-03-26T19:11:39;96948.75;;;11.53;45.09
57086;BME280;42964;42.910;23.792;2023-03-26T19:16:39;96896.63;;;11.12;45.67
57086;BME280;42964;42.910;23.792;2023-03-26T19:21:41;96940.56;;;11.24;47.57
57086;BME280;42964;42.910;23.792;2023-03-26T19:26:40;96953.72;;;11.14;48.46
57086;BME280;42964;42.910;23.792;2023-03-26T19:31:39;96951.06;;;10.59;50.38
57086;BME280;42964;42.910;23.792;2023-03-26T19:36:59;96951.13;;;10.55;50.07
57086;BME280;42964;42.910;23.792;2023-03-26T19:42:04;96932.84;;;10.62;49.29
57086;BME280;42964;42.910;23.792;2023-03-26T19:47:12;96925.91;;;10.65;49.22
57086;BME280;42964;42.910;23.792;2023-03-26T19:52:25;96900.13;;;10.52;49.56
57086;BME280;42964;42.910;23.792;2023-03-26T19:57:24;96918.22;;;10.57;50.08
57086;BME280;42964;42.910;23.792;2023-03-26T20:02:24;96919.16;;;10.51;50.63
57086;BME280;42964;42.910;23.792;2023-03-26T20:07:24;96905.53;;;10.37;50.55
57086;BME280;42964;42.910;23.792;2023-03-26T20:12:26;96904.69;;;10.36;51.31
57086;BME280;42964;42.910;23.792;2023-03-26T20:17:25;96892.69;;;10.29;51.35
57086;BME280;42964;42.910;23.792;2023-03-26T20:22:24;96895.38;;;10.22;51.72
57086;BME280;42964;42.910;23.792;2023-03-26T20:27:24;96889.44;;;10.13;52.22
57086;BME280;42964;42.910;23.792;2023-03-26T20:32:23;96888.63;;;10.08;52.63
57086;BME280;42964;42.910;23.792;2023-03-26T20:37:22;96874.16;;;9.93;52.49
57086;BME280;42964;42.910;23.792;2023-03-26T20:42:21;96887.22;;;9.83;52.96
57086;BME280;42964;42.910;23.792;2023-03-26T20:47:20;96877.06;;;9.63;54.30
57086;BME280;42964;42.910;23.792;2023-03-26T20:52:19;96877.19;;;9.55;54.40
57086;BME280;42964;42.910;23.792;2023-03-26T20:57:20;96870.34;;;9.48;54.32
57086;BME280;42964;42.910;23.792;2023-03-26T21:02:19;96867.06;;;9.33;54.64
57086;BME280;42964;42.910;23.792;2023-03-26T21:07:19;96872.28;;;9.30;54.65
57086;BME280;42964;42.910;23.792;2023-03-26T21:12:29;96868.03;;;9.19;55.97
57086;BME280;42964;42.910;23.792;2023-03-26T21:17:31;96733.44;;;8.35;56.12
57086;BME280;42964;42.910;23.792;2023-03-26T21:28:01;96841.66;;;8.81;56.48
57086;BME280;42964;42.910;23.792;2023-03-26T21:33:05;96827.09;;;8.66;56.22
57086;BME280;42964;42.910;23.792;2023-03-26T21:38:05;96827.13;;;8.63;55.98
57086;BME280;42964;42.910;23.792;2023-03-26T21:43:10;96822.03;;;8.54;56.22
57086;BME280;42964;42.910;23.792;2023-03-26T21:48:09;96807.56;;;8.30;56.51
57086;BME280;42964;42.910;23.792;2023-03-26T21:53:11;96803.28;;;8.27;55.72
57086;BME280;42964;42.910;23.792;2023-03-26T21:58:16;96795.63;;;8.14;56.26
57086;BME280;42964;42.910;23.792;2023-03-26T22:03:33;96774.16;;;8.02;57.51
57086;BME280;42964;42.910;23.792;2023-03-26T22:08:37;96782.75;;;8.03;58.23
57086;BME280;42964;42.910;23.792;2023-03-26T22:13:37;96789.69;;;7.96;59.35
57086;BME280;42964;42.910;23.792;2023-03-26T22:18:36;96787.16;;;7.87;60.10
57086;BME280;42964;42.910;23.792;2023-03-26T22:23:35;96764.84;;;7.83;60.57
57086;BME280;42964;42.910;23.792;2023-03-26T22:28:35;96761.41;;;7.76;59.99
57086;BME280;42964;42.910;23.792;2023-03-26T22:33:34;96742.53;;;7.70;60.33
57086;BME280;42964;42.910;23.792;2023-03-26T22:38:34;96721.88;;;7.66;60.39
57086;BME280;42964;42.910;23.792;2023-03-26T22:43:33;96715.00;;;7.69;60.54
57086;BME280;42964;42.910;23.792;2023-03-26T22:48:32;96709.00;;;7.59;60.59
57086;BME280;42964;42.910;23.792;2023-03-26T22:53:31;96727.19;;;7.36;63.02
57086;BME280;42964;42.910;23.792;2023-03-26T22:58:32;96711.78;;;7.14;65.29
57086;BME280;42964;42.910;23.792;2023-03-26T23:03:31;96705.00;;;6.95;65.76
57086;BME280;42964;42.910;23.792;2023-03-26T23:08:30;96695.59;;;6.80;66.41
57086;BME280;42964;42.910;23.792;2023-03-26T23:13:30;96688.72;;;6.74;65.77
57086;BME280;42964;42.910;23.792;2023-03-26T23:18:29;96673.25;;;6.77;65.95
57086;BME280;42964;42.910;23.792;2023-03-26T23:23:30;96672.41;;;6.75;65.30
57086;BME280;42964;42.910;23.792;2023-03-26T23:28:31;96666.38;;;6.78;65.56
57086;BME280;42964;42.910;23.792;2023-03-26T23:33:33;96661.22;;;6.78;65.60
57086;BME280;42964;42.910;23.792;2023-03-26T23:38:34;96642.34;;;6.68;64.99
57086;BME280;42964;42.910;23.792;2023-03-26T23:43:33;96659.53;;;6.66;64.83
57086;BME280;42964;42.910;23.792;2023-03-26T23:48:32;96656.13;;;6.61;65.62
57086;BME280;42964;42.910;23.792;2023-03-26T23:53:31;96644.97;;;6.59;65.26
57086;BME280;42964;42.910;23.792;2023-03-26T23:58:30;96597.78;;;6.35;66.81
